sensor_id;sensor_type;location;lat;lon;timestamp;P1;durP1;ratioP1;P2;durP2;ratioP2
14056;SDS011;7103;54.300;10.180;2022-08-01T00:00:46;0.00;;;0.00;;
14056;SDS011;7103;54.300;10.180;2022-08-01T00:03:13;0.00;;;0.00;;
14056;SDS011;7103;54.300;10.180;2022-08-01T00:05:40;0.00;;;0.00;;
14056;SDS011;7103;54.300;10.180;2022-08-01T00:08:09;0.00;;;0.00;;
14056;SDS011;7103;54.300;10.180;2022-08-01T00:10:36;0.00;;;0.00;;
14056;SDS011;7103;54.300;10.180;2022-08-01T00:13:03;0.00;;;0.00;;
14056;SDS011;7103;54.300;10.180;2022-08-01T00:15:31;0.00;;;0.00;;
14056;SDS011;7103;54.300;10.180;2022-08-01T00:17:58;0.00;;;0.00;;
14056;SDS011;7103;54.300;10.180;2022-08-01T00:20:25;0.00;;;0.00;;
14056;SDS011;7103;54.300;10.180;2022-08-01T00:22:53;0.00;;;0.00;;
14056;SDS011;7103;54.300;10.180;2022-08-01T00:25:20;0.00;;;0.00;;
14056;SDS011;7103;54.300;10.180;2022-08-01T00:27:59;0.00;;;0.00;;
14056;SDS011;7103;54.300;10.180;2022-08-01T00:30:27;0.00;;;0.00;;
14056;SDS011;7103;54.300;10.180;2022-08-01T00:32:54;0.00;;;0.00;;
14056;SDS011;7103;54.300;10.180;2022-08-01T00:35:21;0.00;;;0.00;;
14056;SDS011;7103;54.300;10.180;2022-08-01T00:37:48;0.00;;;0.00;;
14056;SDS011;7103;54.300;10.180;2022-08-01T00:40:15;0.00;;;0.00;;
14056;SDS011;7103;54.300;10.180;2022-08-01T00:42:42;0.00;;;0.00;;
14056;SDS011;7103;54.300;10.180;2022-08-01T00:45:09;0.00;;;0.00;;
14056;SDS011;7103;54.300;10.180;2022-08-01T00:47:38;0.00;;;0.00;;
14056;SDS011;7103;54.300;10.180;2022-08-01T00:50:06;0.00;;;0.00;;
14056;SDS011;7103;54.300;10.180;2022-08-01T00:52:34;0.00;;;0.00;;
14056;SDS011;7103;54.300;10.180;2022-08-01T00:55:02;0.00;;;0.00;;
14056;SDS011;7103;54.300;10.180;2022-08-01T00:57:29;0.00;;;0.00;;
14056;SDS011;7103;54.300;10.180;2022-08-01T01:00:16;0.00;;;0.00;;
14056;SDS011;7103;54.300;10.180;2022-08-01T01:02:52;0.00;;;0.00;;
14056;SDS011;7103;54.300;10.180;2022-08-01T01:05:19;0.00;;;0.00;;
14056;SDS011;7103;54.300;10.180;2022-08-01T01:08:02;0.00;;;0.00;;
14056;SDS011;7103;54.300;10.180;2022-08-01T01:10:35;0.00;;;0.00;;
14056;SDS011;7103;54.300;10.180;2022-08-01T01:13:18;0.00;;;0.00;;
14056;SDS011;7103;54.300;10.180;2022-08-01T01:15:58;0.00;;;0.00;;
14056;SDS011;7103;54.300;10.180;2022-08-01T01:18:30;0.00;;;0.00;;
14056;SDS011;7103;54.300;10.180;2022-08-01T01:21:07;0.00;;;0.00;;
14056;SDS011;7103;54.300;10.180;2022-08-01T01:29:30;0.00;;;0.00;;
14056;SDS011;7103;54.300;10.180;2022-08-01T01:32:30;0.00;;;0.00;;
14056;SDS011;7103;54.300;10.180;2022-08-01T01:35:05;0.00;;;0.00;;
14056;SDS011;7103;54.300;10.180;2022-08-01T01:37:35;0.00;;;0.00;;
14056;SDS011;7103;54.300;10.180;2022-08-01T01:40:06;0.00;;;0.00;;
14056;SDS011;7103;54.300;10.180;2022-08-01T01:42:36;0.00;;;0.00;;
14056;SDS011;7103;54.300;10.180;2022-08-01T01:45:06;0.00;;;0.00;;
14056;SDS011;7103;54.300;10.180;2022-08-01T01:47:34;0.00;;;0.00;;
14056;SDS011;7103;54.300;10.180;2022-08-01T01:50:05;0.00;;;0.00;;
14056;SDS011;7103;54.300;10.180;2022-08-01T01:52:35;0.00;;;0.00;;
14056;SDS011;7103;54.300;10.180;2022-08-01T01:55:05;0.00;;;0.00;;
14056;SDS011;7103;54.300;10.180;2022-08-01T01:57:37;0.00;;;0.00;;
14056;SDS011;7103;54.300;10.180;2022-08-01T02:00:07;0.00;;;0.00;;
14056;SDS011;7103;54.300;10.180;2022-08-01T02:02:36;0.00;;;0.00;;
14056;SDS011;7103;54.300;10.180;2022-08-01T02:05:06;0.00;;;0.00;;
14056;SDS011;7103;54.300;10.180;2022-08-01T02:07:36;0.00;;;0.00;;
14056;SDS011;7103;54.300;10.180;2022-08-01T02:10:05;0.00;;;0.00;;
14056;SDS011;7103;54.300;10.180;2022-08-01T02:12:38;0.00;;;0.00;;
14056;SDS011;7103;54.300;10.180;2022-08-01T02:15:07;0.00;;;0.00;;
14056;SDS011;7103;54.300;10.180;2022-08-01T02:17:43;0.00;;;0.00;;
14056;SDS011;7103;54.300;10.180;2022-08-01T02:20:13;0.00;;;0.00;;
14056;SDS011;7103;54.300;10.180;2022-08-01T02:22:47;0.00;;;0.00;;
14056;SDS011;7103;54.300;10.180;2022-08-01T02:30:41;0.00;;;0.00;;
14056;SDS011;7103;54.300;10.180;2022-08-01T02:33:20;0.00;;;0.00;;
14056;SDS011;7103;54.300;10.180;2022-08-01T02:35:56;0.00;;;0.00;;
14056;SDS011;7103;54.300;10.180;2022-08-01T02:38:45;0.00;;;0.00;;
14056;SDS011;7103;54.300;10.180;2022-08-01T02:41:14;0.00;;;0.00;;
14056;SDS011;7103;54.300;10.180;2022-08-01T02:43:46;0.00;;;0.00;;
14056;SDS011;7103;54.300;10.180;2022-08-01T02:46:29;0.00;;;0.00;;
14056;SDS011;7103;54.300;10.180;2022-08-01T02:49:11;0.00;;;0.00;;
14056;SDS011;7103;54.300;10.180;2022-08-01T02:51:39;0.00;;;0.00;;
14056;SDS011;7103;54.300;10.180;2022-08-01T02:54:08;0.00;;;0.00;;
14056;SDS011;7103;54.300;10.180;2022-08-01T02:56:37;0.00;;;0.00;;
14056;SDS011;7103;54.300;10.180;2022-08-01T02:59:07;0.00;;;0.00;;
14056;SDS011;7103;54.300;10.180;2022-08-01T03:01:39;0.00;;;0.00;;
14056;SDS011;7103;54.300;10.180;2022-08-01T03:04:09;0.00;;;0.00;;
14056;SDS011;7103;54.300;10.180;2022-08-01T03:06:38;0.00;;;0.00;;
14056;SDS011;7103;54.300;10.180;2022-08-01T03:09:10;0.00;;;0.00;;
14056;SDS011;7103;54.300;10.180;2022-08-01T03:11:39;0.00;;;0.00;;
14056;SDS011;7103;54.300;10.180;2022-08-01T03:14:09;0.00;;;0.00;;
14056;SDS011;7103;54.300;10.180;2022-08-01T03:16:39;0.00;;;0.00;;
14056;SDS011;7103;54.300;10.180;2022-08-01T03:19:08;0.00;;;0.00;;
14056;SDS011;7103;54.300;10.180;2022-08-01T03:21:39;0.00;;;0.00;;
14056;SDS011;7103;54.300;10.180;2022-08-01T03:24:08;0.00;;;0.00;;
14056;SDS011;7103;54.300;10.180;2022-08-01T03:26:38;0.00;;;0.00;;
14056;SDS011;7103;54.300;10.180;2022-08-01T03:29:06;0.00;;;0.00;;
14056;SDS011;7103;54.300;10.180;2022-08-01T03:31:37;0.00;;;0.00;;
14056;SDS011;7103;54.300;10.180;2022-08-01T03:34:09;0.00;;;0.00;;
14056;SDS011;7103;54.300;10.180;2022-08-01T03:37:00;0.00;;;0.00;;
14056;SDS011;7103;54.300;10.180;2022-08-01T03:39:31;0.00;;;0.00;;
14056;SDS011;7103;54.300;10.180;2022-08-01T03:42:09;0.00;;;0.00;;
14056;SDS011;7103;54.300;10.180;2022-08-01T03:44:43;0.00;;;0.00;;
14056;SDS011;7103;54.300;10.180;2022-08-01T03:47:19;0.00;;;0.00;;
14056;SDS011;7103;54.300;10.180;2022-08-01T03:49:51;0.00;;;0.00;;
14056;SDS011;7103;54.300;10.180;2022-08-01T03:52:21;0.00;;;0.00;;
14056;SDS011;7103;54.300;10.180;2022-08-01T03:54:51;0.00;;;0.00;;
14056;SDS011;7103;54.300;10.180;2022-08-01T03:57:29;0.00;;;0.00;;
14056;SDS011;7103;54.300;10.180;2022-08-01T04:00:03;0.00;;;0.00;;
14056;SDS011;7103;54.300;10.180;2022-08-01T04:02:33;0.00;;;0.00;;
14056;SDS011;7103;54.300;10.180;2022-08-01T04:05:01;0.00;;;0.00;;
14056;SDS011;7103;54.300;10.180;2022-08-01T04:07:35;0.00;;;0.00;;
14056;SDS011;7103;54.300;10.180;2022-08-01T04:10:06;0.00;;;0.00;;
14056;SDS011;7103;54.300;10.180;2022-08-01T04:12:38;0.00;;;0.00;;
14056;SDS011;7103;54.300;10.180;2022-08-01T04:15:05;0.00;;;0.00;;
14056;SDS011;7103;54.300;10.180;2022-08-01T04:17:36;0.00;;;0.00;;
14056;SDS011;7103;54.300;10.180;2022-08-01T04:20:06;0.00;;;0.00;;
14056;SDS011;7103;54.300;10.180;2022-08-01T04:22:37;0.00;;;0.00;;
14056;SDS011;7103;54.300;10.180;2022-08-01T04:25:07;0.00;;;0.00;;
14056;SDS011;7103;54.300;10.180;2022-08-01T04:27:40;0.00;;;0.00;;
14056;SDS011;7103;54.300;10.180;2022-08-01T04:30:26;0.00;;;0.00;;
14056;SDS011;7103;54.300;10.180;2022-08-01T04:32:57;0.00;;;0.00;;
14056;SDS011;7103;54.300;10.180;2022-08-01T04:35:27;0.00;;;0.00;;
14056;SDS011;7103;54.300;10.180;2022-08-01T04:38:21;0.00;;;0.00;;
14056;SDS011;7103;54.300;10.180;2022-08-01T04:40:50;0.00;;;0.00;;
14056;SDS011;7103;54.300;10.180;2022-08-01T04:43:19;0.00;;;0.00;;
14056;SDS011;7103;54.300;10.180;2022-08-01T04:45:46;0.00;;;0.00;;
14056;SDS011;7103;54.300;10.180;2022-08-01T04:48:15;0.00;;;0.00;;
14056;SDS011;7103;54.300;10.180;2022-08-01T04:50:48;0.00;;;0.00;;
14056;SDS011;7103;54.300;10.180;2022-08-01T04:53:16;0.00;;;0.00;;
14056;SDS011;7103;54.300;10.180;2022-08-01T04:55:45;0.00;;;0.00;;
14056;SDS011;7103;54.300;10.180;2022-08-01T04:58:13;0.00;;;0.00;;
14056;SDS011;7103;54.300;10.180;2022-08-01T05:00:44;0.00;;;0.00;;
14056;SDS011;7103;54.300;10.180;2022-08-01T05:03:11;0.00;;;0.00;;
14056;SDS011;7103;54.300;10.180;2022-08-01T05:05:38;0.00;;;0.00;;
14056;SDS011;7103;54.300;10.180;2022-08-01T05:08:05;0.00;;;0.00;;
14056;SDS011;7103;54.300;10.180;2022-08-01T05:10:33;0.00;;;0.00;;
14056;SDS011;7103;54.300;10.180;2022-08-01T05:13:01;0.00;;;0.00;;
14056;SDS011;7103;54.300;10.180;2022-08-01T05:15:29;0.00;;;0.00;;
14056;SDS011;7103;54.300;10.180;2022-08-01T05:17:56;0.00;;;0.00;;
14056;SDS011;7103;54.300;10.180;2022-08-01T05:20:23;0.00;;;0.00;;
14056;SDS011;7103;54.300;10.180;2022-08-01T05:22:50;0.00;;;0.00;;
14056;SDS011;7103;54.300;10.180;2022-08-01T05:25:19;0.00;;;0.00;;
14056;SDS011;7103;54.300;10.180;2022-08-01T05:28:06;0.00;;;0.00;;
14056;SDS011;7103;54.300;10.180;2022-08-01T05:30:33;0.00;;;0.00;;
14056;SDS011;7103;54.300;10.180;2022-08-01T05:33:00;0.00;;;0.00;;
14056;SDS011;7103;54.300;10.180;2022-08-01T05:35:27;0.00;;;0.00;;
14056;SDS011;7103;54.300;10.180;2022-08-01T05:38:15;0.00;;;0.00;;
14056;SDS011;7103;54.300;10.180;2022-08-01T05:40:42;0.00;;;0.00;;
14056;SDS011;7103;54.300;10.180;2022-08-01T05:43:09;0.00;;;0.00;;
14056;SDS011;7103;54.300;10.180;2022-08-01T05:45:36;0.00;;;0.00;;
14056;SDS011;7103;54.300;10.180;2022-08-01T05:48:03;0.00;;;0.00;;
14056;SDS011;7103;54.300;10.180;2022-08-01T05:50:31;0.00;;;0.00;;
14056;SDS011;7103;54.300;10.180;2022-08-01T05:52:59;0.00;;;0.00;;
14056;SDS011;7103;54.300;10.180;2022-08-01T05:55:26;0.00;;;0.00;;
14056;SDS011;7103;54.300;10.180;2022-08-01T05:57:54;0.00;;;0.00;;
14056;SDS011;7103;54.300;10.180;2022-08-01T06:00:22;0.00;;;0.00;;
14056;SDS011;7103;54.300;10.180;2022-08-01T06:02:49;0.00;;;0.00;;
14056;SDS011;7103;54.300;10.180;2022-08-01T06:05:16;0.00;;;0.00;;
14056;SDS011;7103;54.300;10.180;2022-08-01T06:07:43;0.00;;;0.00;;
14056;SDS011;7103;54.300;10.180;2022-08-01T06:10:10;0.00;;;0.00;;
14056;SDS011;7103;54.300;10.180;2022-08-01T06:12:38;0.00;;;0.00;;
14056;SDS011;7103;54.300;10.180;2022-08-01T06:15:05;0.00;;;0.00;;
14056;SDS011;7103;54.300;10.180;2022-08-01T06:17:33;0.00;;;0.00;;
14056;SDS011;7103;54.300;10.180;2022-08-01T06:20:00;0.00;;;0.00;;
14056;SDS011;7103;54.300;10.180;2022-08-01T06:22:28;0.00;;;0.00;;
14056;SDS011;7103;54.300;10.180;2022-08-01T06:24:56;0.00;;;0.00;;
14056;SDS011;7103;54.300;10.180;2022-08-01T06:27:24;0.00;;;0.00;;
14056;SDS011;7103;54.300;10.180;2022-08-01T06:29:57;0.00;;;0.00;;
14056;SDS011;7103;54.300;10.180;2022-08-01T06:32:28;0.00;;;0.00;;
14056;SDS011;7103;54.300;10.180;2022-08-01T06:34:56;0.00;;;0.00;;
14056;SDS011;7103;54.300;10.180;2022-08-01T06:37:23;0.00;;;0.00;;
14056;SDS011;7103;54.300;10.180;2022-08-01T06:39:53;0.00;;;0.00;;
14056;SDS011;7103;54.300;10.180;2022-08-01T06:42:20;0.00;;;0.00;;
14056;SDS011;7103;54.300;10.180;2022-08-01T06:44:47;0.00;;;0.00;;
14056;SDS011;7103;54.300;10.180;2022-08-01T06:47:15;0.00;;;0.00;;
14056;SDS011;7103;54.300;10.180;2022-08-01T06:49:42;0.00;;;0.00;;
14056;SDS011;7103;54.300;10.180;2022-08-01T06:52:09;0.00;;;0.00;;
14056;SDS011;7103;54.300;10.180;2022-08-01T06:54:38;0.00;;;0.00;;
14056;SDS011;7103;54.300;10.180;2022-08-01T06:57:05;0.00;;;0.00;;
14056;SDS011;7103;54.300;10.180;2022-08-01T06:59:33;0.00;;;0.00;;
14056;SDS011;7103;54.300;10.180;2022-08-01T07:02:00;0.00;;;0.00;;
14056;SDS011;7103;54.300;10.180;2022-08-01T07:04:30;0.00;;;0.00;;
14056;SDS011;7103;54.300;10.180;2022-08-01T07:06:57;0.00;;;0.00;;
14056;SDS011;7103;54.300;10.180;2022-08-01T07:09:24;0.00;;;0.00;;
14056;SDS011;7103;54.300;10.180;2022-08-01T07:11:53;0.00;;;0.00;;
14056;SDS011;7103;54.300;10.180;2022-08-01T07:14:23;0.00;;;0.00;;
14056;SDS011;7103;54.300;10.180;2022-08-01T07:16:50;0.00;;;0.00;;
14056;SDS011;7103;54.300;10.180;2022-08-01T07:19:17;0.00;;;0.00;;
14056;SDS011;7103;54.300;10.180;2022-08-01T07:21:44;0.00;;;0.00;;
14056;SDS011;7103;54.300;10.180;2022-08-01T07:24:16;0.00;;;0.00;;
14056;SDS011;7103;54.300;10.180;2022-08-01T07:26:47;0.00;;;0.00;;
14056;SDS011;7103;54.300;10.180;2022-08-01T07:29:20;0.00;;;0.00;;
14056;SDS011;7103;54.300;10.180;2022-08-01T07:31:48;0.00;;;0.00;;
14056;SDS011;7103;54.300;10.180;2022-08-01T07:34:19;0.00;;;0.00;;
14056;SDS011;7103;54.300;10.180;2022-08-01T07:36:47;0.00;;;0.00;;
14056;SDS011;7103;54.300;10.180;2022-08-01T07:39:14;0.00;;;0.00;;
14056;SDS011;7103;54.300;10.180;2022-08-01T07:41:41;0.00;;;0.00;;
14056;SDS011;7103;54.300;10.180;2022-08-01T07:44:28;0.00;;;0.00;;
14056;SDS011;7103;54.300;10.180;2022-08-01T07:46:55;0.00;;;0.00;;
14056;SDS011;7103;54.300;10.180;2022-08-01T07:49:22;0.00;;;0.00;;
14056;SDS011;7103;54.300;10.180;2022-08-01T07:51:49;0.00;;;0.00;;
14056;SDS011;7103;54.300;10.180;2022-08-01T07:54:30;0.00;;;0.00;;
14056;SDS011;7103;54.300;10.180;2022-08-01T07:56:59;0.00;;;0.00;;
14056;SDS011;7103;54.300;10.180;2022-08-01T07:59:27;0.00;;;0.00;;
14056;SDS011;7103;54.300;10.180;2022-08-01T08:01:58;0.00;;;0.00;;
14056;SDS011;7103;54.300;10.180;2022-08-01T08:04:26;0.00;;;0.00;;
14056;SDS011;7103;54.300;10.180;2022-08-01T08:06:54;0.00;;;0.00;;
14056;SDS011;7103;54.300;10.180;2022-08-01T08:09:21;0.00;;;0.00;;
14056;SDS011;7103;54.300;10.180;2022-08-01T08:11:49;0.00;;;0.00;;
14056;SDS011;7103;54.300;10.180;2022-08-01T08:14:16;0.00;;;0.00;;
14056;SDS011;7103;54.300;10.180;2022-08-01T08:16:44;0.00;;;0.00;;
14056;SDS011;7103;54.300;10.180;2022-08-01T08:19:14;0.00;;;0.00;;
14056;SDS011;7103;54.300;10.180;2022-08-01T08:21:42;0.00;;;0.00;;
14056;SDS011;7103;54.300;10.180;2022-08-01T08:24:12;0.00;;;0.00;;
14056;SDS011;7103;54.300;10.180;2022-08-01T08:26:56;0.00;;;0.00;;
14056;SDS011;7103;54.300;10.180;2022-08-01T08:29:24;0.00;;;0.00;;
14056;SDS011;7103;54.300;10.180;2022-08-01T08:31:53;0.00;;;0.00;;
14056;SDS011;7103;54.300;10.180;2022-08-01T08:34:23;0.10;;;0.10;;
14056;SDS011;7103;54.300;10.180;2022-08-01T08:36:50;0.00;;;0.00;;
14056;SDS011;7103;54.300;10.180;2022-08-01T08:39:18;0.00;;;0.00;;
14056;SDS011;7103;54.300;10.180;2022-08-01T08:41:49;0.10;;;0.10;;
14056;SDS011;7103;54.300;10.180;2022-08-01T08:44:17;0.10;;;0.10;;
14056;SDS011;7103;54.300;10.180;2022-08-01T08:46:45;0.10;;;0.10;;
14056;SDS011;7103;54.300;10.180;2022-08-01T08:49:19;0.10;;;0.10;;
14056;SDS011;7103;54.300;10.180;2022-08-01T08:51:49;0.10;;;0.10;;
14056;SDS011;7103;54.300;10.180;2022-08-01T08:54:21;0.10;;;0.10;;
14056;SDS011;7103;54.300;10.180;2022-08-01T08:56:57;0.20;;;0.20;;
14056;SDS011;7103;54.300;10.180;2022-08-01T08:59:25;0.13;;;0.13;;
14056;SDS011;7103;54.300;10.180;2022-08-01T09:01:55;0.20;;;0.20;;
14056;SDS011;7103;54.300;10.180;2022-08-01T09:04:24;0.20;;;0.20;;
14056;SDS011;7103;54.300;10.180;2022-08-01T09:06:53;0.10;;;0.10;;
14056;SDS011;7103;54.300;10.180;2022-08-01T09:09:21;0.10;;;0.10;;
14056;SDS011;7103;54.300;10.180;2022-08-01T09:11:49;0.20;;;0.20;;
14056;SDS011;7103;54.300;10.180;2022-08-01T09:14:23;0.20;;;0.20;;
14056;SDS011;7103;54.300;10.180;2022-08-01T09:17:06;0.20;;;0.20;;
14056;SDS011;7103;54.300;10.180;2022-08-01T09:19:41;0.20;;;0.20;;
14056;SDS011;7103;54.300;10.180;2022-08-01T09:22:17;0.20;;;0.20;;
14056;SDS011;7103;54.300;10.180;2022-08-01T09:27:44;0.20;;;0.20;;
14056;SDS011;7103;54.300;10.180;2022-08-01T09:30:12;0.20;;;0.20;;
14056;SDS011;7103;54.300;10.180;2022-08-01T09:32:58;0.20;;;0.20;;
14056;SDS011;7103;54.300;10.180;2022-08-01T09:35:53;0.20;;;0.20;;
14056;SDS011;7103;54.300;10.180;2022-08-01T09:38:22;0.20;;;0.20;;
14056;SDS011;7103;54.300;10.180;2022-08-01T09:41:34;0.20;;;0.20;;
14056;SDS011;7103;54.300;10.180;2022-08-01T09:44:05;0.30;;;0.30;;
14056;SDS011;7103;54.300;10.180;2022-08-01T09:46:33;0.20;;;0.20;;
14056;SDS011;7103;54.300;10.180;2022-08-01T09:49:02;0.20;;;0.20;;
14056;SDS011;7103;54.300;10.180;2022-08-01T09:51:37;0.30;;;0.30;;
14056;SDS011;7103;54.300;10.180;2022-08-01T09:54:32;0.23;;;0.23;;
14056;SDS011;7103;54.300;10.180;2022-08-01T09:57:10;0.27;;;0.27;;
14056;SDS011;7103;54.300;10.180;2022-08-01T09:59:40;0.30;;;0.30;;
14056;SDS011;7103;54.300;10.180;2022-08-01T10:05:02;0.30;;;0.30;;
14056;SDS011;7103;54.300;10.180;2022-08-01T10:07:34;0.23;;;0.23;;
14056;SDS011;7103;54.300;10.180;2022-08-01T10:10:13;0.30;;;0.30;;
14056;SDS011;7103;54.300;10.180;2022-08-01T10:12:42;0.30;;;0.30;;
14056;SDS011;7103;54.300;10.180;2022-08-01T10:15:11;0.30;;;0.30;;
14056;SDS011;7103;54.300;10.180;2022-08-01T10:17:49;0.30;;;0.30;;
14056;SDS011;7103;54.300;10.180;2022-08-01T10:20:32;0.27;;;0.27;;
14056;SDS011;7103;54.300;10.180;2022-08-01T10:23:01;0.30;;;0.30;;
14056;SDS011;7103;54.300;10.180;2022-08-01T10:25:35;0.30;;;0.30;;
14056;SDS011;7103;54.300;10.180;2022-08-01T10:28:15;0.23;;;0.23;;
14056;SDS011;7103;54.300;10.180;2022-08-01T10:30:49;0.30;;;0.30;;
14056;SDS011;7103;54.300;10.180;2022-08-01T10:33:21;0.27;;;0.27;;
14056;SDS011;7103;54.300;10.180;2022-08-01T10:36:09;0.27;;;0.27;;
14056;SDS011;7103;54.300;10.180;2022-08-01T10:38:37;0.30;;;0.30;;
14056;SDS011;7103;54.300;10.180;2022-08-01T10:41:05;0.30;;;0.30;;
14056;SDS011;7103;54.300;10.180;2022-08-01T10:43:34;0.23;;;0.23;;
14056;SDS011;7103;54.300;10.180;2022-08-01T10:46:03;0.27;;;0.27;;
14056;SDS011;7103;54.300;10.180;2022-08-01T10:51:17;0.30;;;0.30;;
14056;SDS011;7103;54.300;10.180;2022-08-01T10:53:47;0.30;;;0.30;;
14056;SDS011;7103;54.300;10.180;2022-08-01T10:56:43;0.30;;;0.30;;
14056;SDS011;7103;54.300;10.180;2022-08-01T10:59:15;0.30;;;0.30;;
14056;SDS011;7103;54.300;10.180;2022-08-01T11:02:11;0.30;;;0.30;;
14056;SDS011;7103;54.300;10.180;2022-08-01T11:05:01;0.30;;;0.30;;
14056;SDS011;7103;54.300;10.180;2022-08-01T11:07:44;0.30;;;0.30;;
14056;SDS011;7103;54.300;10.180;2022-08-01T11:12:54;0.30;;;0.30;;
14056;SDS011;7103;54.300;10.180;2022-08-01T11:15:22;0.30;;;0.30;;
14056;SDS011;7103;54.300;10.180;2022-08-01T11:17:56;0.30;;;0.30;;
14056;SDS011;7103;54.300;10.180;2022-08-01T11:20:27;0.30;;;0.30;;
14056;SDS011;7103;54.300;10.180;2022-08-01T11:28:25;0.30;;;0.30;;
14056;SDS011;7103;54.300;10.180;2022-08-01T11:38:44;0.20;;;0.20;;
14056;SDS011;7103;54.300;10.180;2022-08-01T11:41:16;0.30;;;0.30;;
14056;SDS011;7103;54.300;10.180;2022-08-01T11:49:22;0.30;;;0.30;;
14056;SDS011;7103;54.300;10.180;2022-08-01T11:52:15;0.30;;;0.30;;
14056;SDS011;7103;54.300;10.180;2022-08-01T11:54:51;0.30;;;0.30;;
14056;SDS011;7103;54.300;10.180;2022-08-01T11:57:27;0.30;;;0.30;;
14056;SDS011;7103;54.300;10.180;2022-08-01T12:00:09;0.30;;;0.30;;
14056;SDS011;7103;54.300;10.180;2022-08-01T12:02:42;0.23;;;0.23;;
14056;SDS011;7103;54.300;10.180;2022-08-01T12:05:12;0.30;;;0.30;;
14056;SDS011;7103;54.300;10.180;2022-08-01T12:07:41;0.30;;;0.30;;
14056;SDS011;7103;54.300;10.180;2022-08-01T12:10:14;0.30;;;0.30;;
14056;SDS011;7103;54.300;10.180;2022-08-01T12:12:46;0.30;;;0.30;;
14056;SDS011;7103;54.300;10.180;2022-08-01T12:15:19;0.30;;;0.30;;
14056;SDS011;7103;54.300;10.180;2022-08-01T12:17:48;0.40;;;0.40;;
14056;SDS011;7103;54.300;10.180;2022-08-01T12:20:29;0.30;;;0.30;;
14056;SDS011;7103;54.300;10.180;2022-08-01T12:23:01;0.30;;;0.30;;
14056;SDS011;7103;54.300;10.180;2022-08-01T12:25:32;0.30;;;0.30;;
14056;SDS011;7103;54.300;10.180;2022-08-01T12:28:01;0.30;;;0.30;;
14056;SDS011;7103;54.300;10.180;2022-08-01T12:30:30;0.30;;;0.30;;
14056;SDS011;7103;54.300;10.180;2022-08-01T12:33:04;0.30;;;0.30;;
14056;SDS011;7103;54.300;10.180;2022-08-01T12:35:33;0.30;;;0.30;;
14056;SDS011;7103;54.300;10.180;2022-08-01T12:38:04;0.30;;;0.30;;
14056;SDS011;7103;54.300;10.180;2022-08-01T12:40:33;0.30;;;0.30;;
14056;SDS011;7103;54.300;10.180;2022-08-01T12:43:05;0.30;;;0.30;;
14056;SDS011;7103;54.300;10.180;2022-08-01T12:45:41;0.30;;;0.30;;
14056;SDS011;7103;54.300;10.180;2022-08-01T12:48:22;0.30;;;0.30;;
14056;SDS011;7103;54.300;10.180;2022-08-01T12:50:51;0.30;;;0.30;;
14056;SDS011;7103;54.300;10.180;2022-08-01T12:53:19;0.20;;;0.20;;
14056;SDS011;7103;54.300;10.180;2022-08-01T12:55:48;0.27;;;0.27;;
14056;SDS011;7103;54.300;10.180;2022-08-01T12:58:30;0.30;;;0.30;;
14056;SDS011;7103;54.300;10.180;2022-08-01T13:01:03;0.30;;;0.30;;
14056;SDS011;7103;54.300;10.180;2022-08-01T13:03:35;0.30;;;0.30;;
14056;SDS011;7103;54.300;10.180;2022-08-01T13:06:09;0.30;;;0.30;;
14056;SDS011;7103;54.300;10.180;2022-08-01T13:08:38;0.30;;;0.30;;
14056;SDS011;7103;54.300;10.180;2022-08-01T13:11:06;0.30;;;0.30;;
14056;SDS011;7103;54.300;10.180;2022-08-01T13:13:39;0.30;;;0.30;;
14056;SDS011;7103;54.300;10.180;2022-08-01T13:16:16;0.30;;;0.30;;
14056;SDS011;7103;54.300;10.180;2022-08-01T13:18:59;0.30;;;0.30;;
14056;SDS011;7103;54.300;10.180;2022-08-01T13:21:27;0.30;;;0.30;;
14056;SDS011;7103;54.300;10.180;2022-08-01T13:24:15;0.27;;;0.27;;
14056;SDS011;7103;54.300;10.180;2022-08-01T13:29:20;0.27;;;0.27;;
14056;SDS011;7103;54.300;10.180;2022-08-01T13:31:55;0.30;;;0.30;;
14056;SDS011;7103;54.300;10.180;2022-08-01T13:34:34;0.30;;;0.30;;
14056;SDS011;7103;54.300;10.180;2022-08-01T13:37:01;0.30;;;0.30;;
14056;SDS011;7103;54.300;10.180;2022-08-01T13:39:28;0.20;;;0.20;;
14056;SDS011;7103;54.300;10.180;2022-08-01T13:42:08;0.30;;;0.30;;
14056;SDS011;7103;54.300;10.180;2022-08-01T13:44:44;0.30;;;0.30;;
14056;SDS011;7103;54.300;10.180;2022-08-01T13:47:12;0.30;;;0.30;;
14056;SDS011;7103;54.300;10.180;2022-08-01T13:49:41;0.30;;;0.30;;
14056;SDS011;7103;54.300;10.180;2022-08-01T13:52:08;0.30;;;0.30;;
14056;SDS011;7103;54.300;10.180;2022-08-01T13:54:36;0.30;;;0.30;;
14056;SDS011;7103;54.300;10.180;2022-08-01T13:57:03;0.30;;;0.30;;
14056;SDS011;7103;54.300;10.180;2022-08-01T13:59:30;0.30;;;0.30;;
14056;SDS011;7103;54.300;10.180;2022-08-01T14:01:58;0.23;;;0.23;;
14056;SDS011;7103;54.300;10.180;2022-08-01T14:04:25;0.30;;;0.30;;
14056;SDS011;7103;54.300;10.180;2022-08-01T14:06:52;0.30;;;0.30;;
14056;SDS011;7103;54.300;10.180;2022-08-01T14:09:20;0.30;;;0.30;;
14056;SDS011;7103;54.300;10.180;2022-08-01T14:11:57;0.20;;;0.20;;
14056;SDS011;7103;54.300;10.180;2022-08-01T14:14:25;0.30;;;0.30;;
14056;SDS011;7103;54.300;10.180;2022-08-01T14:16:52;0.20;;;0.20;;
14056;SDS011;7103;54.300;10.180;2022-08-01T14:19:20;0.30;;;0.30;;
14056;SDS011;7103;54.300;10.180;2022-08-01T14:22:02;0.30;;;0.30;;
14056;SDS011;7103;54.300;10.180;2022-08-01T14:24:30;0.20;;;0.20;;
14056;SDS011;7103;54.300;10.180;2022-08-01T14:26:58;0.30;;;0.30;;
14056;SDS011;7103;54.300;10.180;2022-08-01T14:29:26;0.20;;;0.20;;
14056;SDS011;7103;54.300;10.180;2022-08-01T14:32:14;0.30;;;0.30;;
14056;SDS011;7103;54.300;10.180;2022-08-01T14:34:41;0.20;;;0.20;;
14056;SDS011;7103;54.300;10.180;2022-08-01T14:37:08;0.20;;;0.20;;
14056;SDS011;7103;54.300;10.180;2022-08-01T14:39:35;0.30;;;0.30;;
14056;SDS011;7103;54.300;10.180;2022-08-01T14:42:02;0.20;;;0.20;;
14056;SDS011;7103;54.300;10.180;2022-08-01T14:44:32;0.30;;;0.30;;
14056;SDS011;7103;54.300;10.180;2022-08-01T14:47:01;0.20;;;0.20;;
14056;SDS011;7103;54.300;10.180;2022-08-01T14:49:46;0.20;;;0.20;;
14056;SDS011;7103;54.300;10.180;2022-08-01T14:52:13;0.20;;;0.20;;
14056;SDS011;7103;54.300;10.180;2022-08-01T14:54:41;0.20;;;0.20;;
14056;SDS011;7103;54.300;10.180;2022-08-01T14:57:09;0.30;;;0.30;;
14056;SDS011;7103;54.300;10.180;2022-08-01T14:59:36;0.20;;;0.20;;
14056;SDS011;7103;54.300;10.180;2022-08-01T15:02:03;0.30;;;0.30;;
14056;SDS011;7103;54.300;10.180;2022-08-01T15:04:31;0.30;;;0.30;;
14056;SDS011;7103;54.300;10.180;2022-08-01T15:06:58;0.30;;;0.30;;
14056;SDS011;7103;54.300;10.180;2022-08-01T15:09:25;0.20;;;0.20;;
14056;SDS011;7103;54.300;10.180;2022-08-01T15:11:52;0.30;;;0.30;;
14056;SDS011;7103;54.300;10.180;2022-08-01T15:14:19;0.20;;;0.20;;
14056;SDS011;7103;54.300;10.180;2022-08-01T15:17:05;0.20;;;0.20;;
14056;SDS011;7103;54.300;10.180;2022-08-01T15:19:34;0.27;;;0.27;;
14056;SDS011;7103;54.300;10.180;2022-08-01T15:22:07;0.20;;;0.20;;
14056;SDS011;7103;54.300;10.180;2022-08-01T15:24:34;0.30;;;0.30;;
14056;SDS011;7103;54.300;10.180;2022-08-01T15:27:05;0.20;;;0.20;;
14056;SDS011;7103;54.300;10.180;2022-08-01T15:29:44;0.20;;;0.20;;
14056;SDS011;7103;54.300;10.180;2022-08-01T15:32:12;0.30;;;0.30;;
14056;SDS011;7103;54.300;10.180;2022-08-01T15:34:39;0.20;;;0.20;;
14056;SDS011;7103;54.300;10.180;2022-08-01T15:37:08;0.23;;;0.23;;
14056;SDS011;7103;54.300;10.180;2022-08-01T15:39:38;0.20;;;0.20;;
14056;SDS011;7103;54.300;10.180;2022-08-01T15:42:06;0.30;;;0.30;;
14056;SDS011;7103;54.300;10.180;2022-08-01T15:44:44;0.20;;;0.20;;
14056;SDS011;7103;54.300;10.180;2022-08-01T15:47:12;0.20;;;0.20;;
14056;SDS011;7103;54.300;10.180;2022-08-01T15:49:39;0.20;;;0.20;;
14056;SDS011;7103;54.300;10.180;2022-08-01T15:52:06;0.30;;;0.30;;
14056;SDS011;7103;54.300;10.180;2022-08-01T15:54:48;0.20;;;0.20;;
14056;SDS011;7103;54.300;10.180;2022-08-01T15:57:16;0.20;;;0.20;;